Aeroporto :
LOGIN :

Iscrizione | Disclaimer

   EN    FR    IT 

 










Sommario :    VFR   VFR Marginale   IFR   IFR Intensivo   IFR Molto Intensivo
Visibilità : 
Base nubi : 
>= 8 km
>= 3000ft
5 / 8 km
1000 / 3000 ft
1500m / 5 km
500 / 1000 ft
800 / 1500m
200 / 500 ft
< 800m
< 200 ft
Simboli :   Temporali  Nebbia  Neve Forte  Precipitazioni Forti  Vento > 20 kt
SIGMETs :   Varie  Temporali  Ghiacco  Turbolenza  Onda orograficha  Ceneri Vulcaniche






- Altitudine del aeroporto : 86 ft
- Codice IATA : HAU


ENHD - Haugesund

ULTIMO METAR :
  • 021650Z 30036G50KT 9999 -SHRA FEW015CB SCT036 05/01 Q0988

METARs OBSOLETI :
  • 021620Z 30025G37KT 9999 VCSH FEW015CB SCT040 06/M00 Q0987
  • 021550Z 30022G32KT 9999 FEW015CB SCT040 05/00 Q0987
  • 021520Z 31023G34KT 9999 FEW015CB SCT030 05/01 Q0986
  • 021450Z 29030KT 9999 VCSH FEW008 SCT015CB 05/02 Q0986
  • 021420Z 30032G43KT 7000 -SHRA FEW006 SCT012CB BKN020 03/01 Q0985

TAF TAF ENHD
Valido dal 02 a 15 ore il 02 a 19 ore UTC


021400Z 0215/0219 25030G40KT 9999 -SHRA FEW007 SCT015TCU BKN020
TEMPO 0215/0219 28040G50KT 3000 SHRAGS SCT007 BKN012CB
PROB40
TEMPO 0215/0219 TS
BECMG 0216/0219 33025G40KT



MetMap, La meteo Aeronautica in un colpo d'occhio ! - Copyright ORBIFLY Dicembre 2007 - Disclaimer

ORBIFLY MET'MAP TEAM :

Programmazione e sviluppo : Alexandra Zaïnal
Concezione : Baudouin d'Aumeries
Aiuto per la programmazione : Marc-Olivier Méhu
Supporto tecnico e logistico : Manuel Goepfert
Aiuto per la traduzione : Arnaldo La Scala

Contatto : metmap@orbifly.com




FONTI E CREDITI :

   NOAA